createdAt,value
2018-12-16T00:00:19.080Z,12.63
2018-12-16T00:02:50.303Z,11.20
2018-12-16T00:05:23.119Z,11.27
2018-12-16T00:07:58.814Z,11.27
2018-12-16T00:10:33.911Z,14.53
2018-12-16T00:13:08.722Z,12.17
2018-12-16T00:15:40.118Z,12.27
2018-12-16T00:18:10.689Z,11.57
2018-12-16T00:20:40.068Z,15.33
2018-12-16T00:23:14.989Z,12.33
2018-12-16T00:25:44.384Z,11.77
2018-12-16T00:28:17.617Z,11.67
2018-12-16T00:30:47.054Z,11.50
2018-12-16T00:33:16.271Z,10.77
2018-12-16T00:35:47.304Z,12.70
2018-12-16T00:38:17.702Z,10.90
2018-12-16T00:40:47.671Z,12.50
2018-12-16T00:43:20.156Z,11.73
2018-12-16T00:45:49.570Z,11.83
2018-12-16T00:48:20.394Z,11.40
2018-12-16T00:50:49.798Z,12.23
2018-12-16T00:53:20.030Z,12.00
2018-12-16T00:55:53.195Z,12.47
2018-12-16T00:58:25.650Z,12.07
2018-12-16T01:01:00.613Z,12.50
2018-12-16T01:03:32.715Z,12.03
2018-12-16T01:06:08.738Z,11.87
2018-12-16T01:08:40.162Z,12.47
2018-12-16T01:11:14.915Z,12.63
2018-12-16T01:13:44.510Z,10.83
2018-12-16T01:16:20.174Z,13.33
2018-12-16T01:18:51.374Z,13.17
2018-12-16T01:21:26.670Z,12.60
2018-12-16T01:23:57.634Z,10.90
2018-12-16T01:26:32.189Z,12.10
2018-12-16T01:29:07.138Z,13.10
2018-12-16T01:31:40.710Z,12.37
2018-12-16T01:34:13.686Z,13.47
2018-12-16T01:36:42.704Z,12.07
2018-12-16T01:39:18.474Z,12.93
2018-12-16T01:42:00.016Z,13.37
2018-12-16T01:44:34.894Z,12.80
2018-12-16T01:47:07.199Z,15.73
2018-12-16T01:49:38.006Z,14.87
2018-12-16T01:52:13.659Z,12.93
2018-12-16T01:54:42.986Z,14.23
2018-12-16T01:57:15.714Z,14.67
2018-12-16T01:59:48.577Z,14.40
2018-12-16T02:02:23.470Z,13.83
2018-12-16T02:04:53.246Z,14.33
2018-12-16T02:07:22.646Z,13.63
2018-12-16T02:09:58.562Z,12.53
2018-12-16T02:12:29.350Z,13.97
2018-12-16T02:14:59.137Z,14.03
2018-12-16T02:17:32.866Z,14.07
2018-12-16T02:20:07.752Z,14.77
2018-12-16T02:22:39.526Z,13.10
2018-12-16T02:25:12.338Z,15.00
2018-12-16T02:27:41.864Z,12.97
2018-12-16T02:30:15.929Z,14.43
2018-12-16T02:32:48.250Z,14.17
2018-12-16T02:35:17.654Z,16.10
2018-12-16T02:37:47.002Z,15.77
2018-12-16T02:40:19.992Z,14.97
2018-12-16T02:42:55.074Z,15.60
2018-12-16T02:45:27.892Z,16.33
2018-12-16T02:48:02.578Z,16.17
2018-12-16T02:50:37.470Z,15.57
2018-12-16T02:53:08.394Z,14.67
2018-12-16T02:55:41.552Z,16.83
2018-12-16T02:58:16.358Z,15.57
2018-12-16T03:00:45.362Z,15.93
2018-12-16T03:03:18.934Z,17.13
2018-12-16T03:05:52.428Z,14.63
2018-12-16T03:08:27.223Z,15.77
2018-12-16T03:11:00.093Z,15.67
2018-12-16T03:13:32.303Z,16.63
2018-12-16T03:16:03.263Z,14.50
2018-12-16T03:18:38.386Z,16.70
2018-12-16T03:21:08.037Z,18.23
2018-12-16T03:23:41.183Z,15.57
2018-12-16T03:26:13.450Z,15.80
2018-12-16T03:28:44.599Z,15.93
2018-12-16T03:31:17.648Z,18.10
2018-12-16T03:33:49.746Z,17.30
2018-12-16T03:36:22.959Z,16.50
2018-12-16T03:38:55.039Z,17.33
2018-12-16T03:41:30.143Z,16.27
2018-12-16T03:44:03.807Z,18.20
2018-12-16T03:46:33.827Z,15.23
2018-12-16T03:49:03.214Z,16.90
2018-12-16T03:51:38.418Z,16.27
2018-12-16T03:54:11.123Z,17.90
2018-12-16T03:56:42.683Z,18.07
2018-12-16T03:59:18.966Z,17.00
2018-12-16T04:01:57.702Z,17.87
2018-12-16T04:04:32.163Z,16.73
2018-12-16T04:07:07.620Z,18.03
2018-12-16T04:09:36.623Z,17.37
2018-12-16T04:12:10.114Z,17.37
2018-12-16T04:14:47.428Z,14.93
2018-12-16T04:17:16.441Z,15.47
2018-12-16T04:19:50.939Z,17.77
2018-12-16T04:22:23.917Z,17.67
2018-12-16T04:24:56.119Z,14.87
2018-12-16T04:27:29.269Z,16.47
2018-12-16T04:30:01.706Z,17.70
2018-12-16T04:32:33.886Z,17.20
2018-12-16T04:35:05.996Z,18.87
2018-12-16T04:37:43.435Z,17.70
2018-12-16T04:40:18.132Z,17.50
2018-12-16T04:42:50.698Z,19.10
2018-12-16T04:45:21.231Z,16.57
2018-12-16T04:47:56.534Z,18.00
2018-12-16T04:50:25.519Z,17.37
2018-12-16T04:52:54.506Z,17.43
2018-12-16T04:55:23.498Z,16.90
2018-12-16T04:57:52.879Z,17.20
2018-12-16T05:00:27.820Z,17.57
2018-12-16T05:03:02.402Z,18.07
2018-12-16T05:05:37.190Z,17.53
2018-12-16T05:08:12.227Z,18.87
2018-12-16T05:10:44.942Z,17.07
2018-12-16T05:13:15.878Z,17.17
2018-12-16T05:15:47.822Z,19.03
2018-12-16T05:18:22.698Z,18.07
2018-12-16T05:20:52.334Z,18.90
2018-12-16T05:23:25.152Z,17.13
2018-12-16T05:25:56.091Z,18.27
2018-12-16T05:28:26.940Z,16.00
2018-12-16T05:30:56.335Z,16.17
2018-12-16T05:33:26.516Z,18.63
2018-12-16T05:36:01.962Z,16.97
2018-12-16T05:38:30.962Z,17.83
2018-12-16T05:41:03.654Z,17.43
2018-12-16T05:43:36.478Z,18.30
2018-12-16T05:46:07.682Z,18.43
2018-12-16T05:48:42.598Z,19.63
2018-12-16T05:51:15.461Z,17.63
2018-12-16T05:53:48.695Z,17.03
2018-12-16T05:56:20.840Z,19.67
2018-12-16T05:58:55.934Z,17.50
2018-12-16T06:01:28.758Z,17.13
2018-12-16T06:03:57.750Z,18.07
2018-12-16T06:06:32.590Z,18.77
2018-12-16T06:09:04.402Z,20.87
2018-12-16T06:11:36.802Z,21.00
2018-12-16T06:14:09.143Z,18.43
2018-12-16T06:16:44.103Z,17.20
2018-12-16T06:19:16.678Z,19.67
2018-12-16T06:21:46.722Z,18.20
2018-12-16T06:24:17.387Z,18.87
2018-12-16T06:26:53.034Z,19.20
2018-12-16T06:29:22.045Z,19.10
2018-12-16T06:31:55.624Z,17.90
2018-12-16T06:34:27.883Z,19.30
2018-12-16T06:36:58.862Z,19.03
2018-12-16T06:39:33.826Z,19.37
2018-12-16T06:42:06.638Z,16.97
2018-12-16T06:44:39.818Z,19.53
2018-12-16T06:47:15.201Z,20.20
2018-12-16T06:49:44.271Z,21.20
2018-12-16T06:52:19.642Z,20.33
2018-12-16T06:54:49.030Z,20.87
2018-12-16T06:57:21.731Z,20.23
2018-12-16T06:59:56.870Z,20.77
2018-12-16T07:02:28.079Z,20.37
2018-12-16T07:05:01.431Z,19.07
2018-12-16T07:07:34.886Z,19.60
2018-12-16T07:10:07.814Z,19.30
2018-12-16T07:12:37.471Z,19.00
2018-12-16T07:15:07.317Z,19.83
2018-12-16T07:17:37.570Z,18.60
2018-12-16T07:20:09.601Z,19.60
2018-12-16T07:22:47.091Z,18.97
2018-12-16T07:25:18.255Z,18.07
2018-12-16T07:27:50.802Z,20.07
2018-12-16T07:30:24.319Z,18.73
2018-12-16T07:32:53.746Z,18.77
2018-12-16T07:35:22.902Z,21.30
2018-12-16T07:37:57.387Z,19.83
2018-12-16T07:40:32.535Z,22.37
2018-12-16T07:43:03.511Z,25.37
2018-12-16T07:45:39.239Z,23.13
2018-12-16T07:50:40.842Z,20.57
2018-12-16T07:53:10.230Z,20.33
2018-12-16T07:55:42.838Z,26.07
2018-12-16T07:58:12.050Z,24.70
2018-12-16T08:00:41.698Z,21.03
2018-12-16T08:03:12.342Z,21.63
2018-12-16T08:05:41.813Z,21.87
2018-12-16T08:08:14.037Z,23.77
2018-12-16T08:10:44.826Z,31.63
2018-12-16T08:13:19.295Z,24.43
2018-12-16T08:15:51.383Z,23.23
2018-12-16T08:18:20.974Z,21.27
2018-12-16T08:20:54.100Z,23.37
2018-12-16T08:23:27.275Z,23.53
2018-12-16T08:26:02.368Z,20.83
2018-12-16T08:28:37.150Z,42.70
2018-12-16T08:31:12.122Z,32.97
2018-12-16T08:33:41.757Z,33.20
2018-12-16T08:36:16.710Z,22.53
2018-12-16T08:38:49.186Z,22.47
2018-12-16T08:41:18.570Z,22.07
2018-12-16T08:43:53.610Z,22.60
2018-12-16T08:46:28.899Z,23.40
2018-12-16T08:49:01.123Z,22.37
2018-12-16T08:51:36.330Z,21.23
2018-12-16T08:54:09.531Z,22.53
2018-12-16T08:56:39.118Z,21.97
2018-12-16T08:59:12.018Z,21.73
2018-12-16T09:01:41.211Z,21.73
2018-12-16T09:04:14.253Z,19.63
2018-12-16T09:06:43.251Z,20.97
2018-12-16T09:09:19.337Z,31.67
2018-12-16T09:11:51.372Z,47.57
2018-12-16T09:14:26.752Z,32.10
2018-12-16T09:16:59.054Z,21.40
2018-12-16T09:19:34.867Z,20.50
2018-12-16T09:22:06.202Z,20.57
2018-12-16T09:24:37.749Z,23.33
2018-12-16T09:27:10.278Z,25.33
2018-12-16T09:29:40.783Z,21.60
2018-12-16T09:32:10.199Z,20.27
2018-12-16T09:34:41.656Z,21.17
2018-12-16T09:37:11.018Z,19.70
2018-12-16T09:39:46.178Z,22.60
2018-12-16T09:42:19.211Z,19.57
2018-12-16T09:44:52.205Z,20.40
2018-12-16T09:47:27.110Z,19.50
2018-12-16T09:50:01.854Z,20.23
2018-12-16T09:52:34.546Z,30.23
2018-12-16T09:55:10.005Z,23.73
2018-12-16T09:57:43.025Z,19.73
2018-12-16T10:00:14.606Z,33.30
2018-12-16T10:02:46.938Z,23.20
2018-12-16T10:05:22.814Z,19.93
2018-12-16T10:07:51.802Z,19.30
2018-12-16T10:10:27.042Z,20.80
2018-12-16T10:13:02.702Z,21.87
2018-12-16T10:15:37.150Z,20.53
2018-12-16T10:18:09.247Z,26.50
2018-12-16T10:20:38.255Z,19.37
2018-12-16T10:23:09.295Z,20.77
2018-12-16T10:25:38.290Z,20.23
2018-12-16T10:28:08.734Z,20.47
2018-12-16T10:30:43.958Z,19.07
2018-12-16T10:33:16.867Z,19.97
2018-12-16T10:35:46.282Z,19.57
2018-12-16T10:38:19.262Z,20.37
2018-12-16T10:40:50.694Z,18.43
2018-12-16T10:43:19.678Z,23.00
2018-12-16T10:45:52.435Z,19.90
2018-12-16T10:48:23.063Z,22.57
2018-12-16T10:50:55.138Z,19.97
2018-12-16T10:53:26.339Z,26.60
2018-12-16T10:55:58.894Z,22.00
2018-12-16T10:58:31.882Z,19.27
2018-12-16T11:01:10.885Z,19.00
2018-12-16T11:03:43.586Z,17.60
2018-12-16T11:06:13.577Z,19.27
2018-12-16T11:08:44.783Z,17.03
2018-12-16T11:11:13.784Z,18.27
2018-12-16T11:13:44.779Z,17.73
2018-12-16T11:16:14.459Z,18.50
2018-12-16T11:18:49.942Z,18.70
2018-12-16T11:21:24.663Z,17.83
2018-12-16T11:23:58.229Z,17.70
2018-12-16T11:26:31.403Z,19.37
2018-12-16T11:29:05.079Z,17.67
2018-12-16T11:31:34.918Z,18.07
2018-12-16T11:34:06.393Z,15.07
2018-12-16T11:36:40.986Z,18.97
2018-12-16T11:39:10.809Z,16.73
2018-12-16T11:41:40.943Z,18.23
2018-12-16T11:44:12.971Z,17.83
2018-12-16T11:46:51.886Z,18.63
2018-12-16T11:49:24.409Z,16.23
2018-12-16T11:51:57.646Z,15.17
2018-12-16T11:54:30.838Z,17.50
2018-12-16T11:57:00.226Z,16.57
2018-12-16T11:59:29.634Z,17.77
2018-12-16T12:02:02.241Z,16.67
2018-12-16T12:04:34.666Z,22.57
2018-12-16T12:07:05.890Z,18.70
2018-12-16T12:09:37.651Z,18.10
2018-12-16T12:12:10.945Z,18.23
2018-12-16T12:14:43.366Z,25.40
2018-12-16T12:17:19.462Z,14.87
2018-12-16T12:19:50.280Z,15.43
2018-12-16T12:22:19.790Z,17.20
2018-12-16T12:24:55.516Z,20.50
2018-12-16T12:27:28.582Z,16.40
2018-12-16T12:30:00.742Z,23.17
2018-12-16T12:32:29.742Z,17.00
2018-12-16T12:35:03.046Z,16.77
2018-12-16T12:37:38.818Z,16.03
2018-12-16T12:40:12.506Z,16.13
2018-12-16T12:42:44.970Z,15.10
2018-12-16T12:45:17.530Z,17.10
2018-12-16T12:47:46.954Z,17.63
2018-12-16T12:50:19.775Z,15.60
2018-12-16T12:52:48.770Z,17.57
2018-12-16T12:55:26.609Z,17.73
2018-12-16T12:57:52.425Z,14.97
2018-12-16T13:00:27.526Z,14.80
2018-12-16T13:02:57.396Z,14.90
2018-12-16T13:05:36.941Z,14.60
2018-12-16T13:08:06.411Z,14.80
2018-12-16T13:10:36.886Z,15.07
2018-12-16T13:13:07.686Z,17.50
2018-12-16T13:15:41.078Z,15.13
2018-12-16T13:18:16.222Z,14.57
2018-12-16T13:20:49.849Z,17.97
2018-12-16T13:23:22.634Z,17.47
2018-12-16T13:26:08.146Z,16.00
2018-12-16T13:28:40.691Z,15.33
2018-12-16T13:31:12.894Z,15.20
2018-12-16T13:33:43.666Z,15.67
2018-12-16T13:36:13.397Z,14.40
2018-12-16T13:38:42.750Z,14.23
2018-12-16T13:41:15.562Z,13.93
2018-12-16T13:43:51.914Z,14.57
2018-12-16T13:46:25.778Z,13.40
2018-12-16T13:48:56.650Z,15.17
2018-12-16T13:51:26.042Z,16.03
2018-12-16T13:53:56.759Z,14.73
2018-12-16T13:56:28.472Z,13.00
2018-12-16T13:59:00.838Z,14.73
2018-12-16T14:01:31.721Z,14.00
2018-12-16T14:04:04.378Z,14.90
2018-12-16T14:06:39.894Z,16.60
2018-12-16T14:09:15.735Z,15.47
2018-12-16T14:11:46.054Z,14.00
2018-12-16T14:14:18.590Z,13.17
2018-12-16T14:16:51.935Z,14.20
2018-12-16T14:19:21.017Z,13.43
2018-12-16T14:21:54.002Z,13.47
2018-12-16T14:24:27.212Z,15.20
2018-12-16T14:26:58.719Z,14.07
2018-12-16T14:29:29.727Z,14.17
2018-12-16T14:32:04.686Z,14.40
2018-12-16T14:34:39.144Z,13.67
2018-12-16T14:37:14.295Z,15.20
2018-12-16T14:39:45.266Z,15.77
2018-12-16T14:42:20.590Z,14.23
2018-12-16T14:44:53.338Z,14.07
2018-12-16T14:47:29.647Z,14.37
2018-12-16T14:50:03.004Z,15.17
2018-12-16T14:52:32.772Z,13.93
2018-12-16T14:55:02.170Z,14.53
2018-12-16T14:57:38.262Z,14.87
2018-12-16T15:00:14.023Z,14.73
2018-12-16T15:02:43.483Z,14.23
2018-12-16T15:05:15.654Z,15.40
2018-12-16T15:07:44.722Z,14.03
2018-12-16T15:10:20.452Z,14.27
2018-12-16T15:12:49.959Z,18.40
2018-12-16T15:15:20.046Z,21.67
2018-12-16T15:17:54.502Z,14.73
2018-12-16T15:20:23.934Z,15.23
2018-12-16T15:22:52.922Z,14.30
2018-12-16T15:25:25.999Z,12.97
2018-12-16T15:27:58.830Z,14.50
2018-12-16T15:30:33.811Z,14.90
2018-12-16T15:33:06.040Z,16.57
2018-12-16T15:35:41.034Z,15.37
2018-12-16T15:38:15.063Z,24.03
2018-12-16T15:40:47.991Z,15.33
2018-12-16T15:43:20.531Z,17.57
2018-12-16T15:45:56.522Z,14.53
2018-12-16T15:48:31.753Z,16.50
2018-12-16T15:51:05.358Z,15.27
2018-12-16T15:53:34.990Z,16.43
2018-12-16T15:56:12.250Z,14.93
2018-12-16T15:58:47.986Z,15.33
2018-12-16T16:01:21.342Z,15.57
2018-12-16T16:03:52.138Z,15.10
2018-12-16T16:06:21.134Z,13.83
2018-12-16T16:08:50.154Z,12.73
2018-12-16T16:11:19.570Z,14.37
2018-12-16T16:13:51.046Z,14.30
2018-12-16T16:16:23.566Z,14.37
2018-12-16T16:18:59.203Z,14.63
2018-12-16T16:21:30.107Z,14.67
2018-12-16T16:24:01.038Z,15.10
2018-12-16T16:26:32.634Z,19.73
2018-12-16T16:29:08.308Z,13.37
2018-12-16T16:31:37.698Z,14.13
2018-12-16T16:34:06.706Z,14.13
2018-12-16T16:36:36.095Z,14.90
2018-12-16T16:39:09.079Z,21.83
2018-12-16T16:41:38.498Z,21.50
2018-12-16T16:44:08.058Z,15.30
2018-12-16T16:46:41.406Z,18.27
2018-12-16T16:49:15.554Z,13.53
2018-12-16T16:51:51.339Z,17.43
2018-12-16T16:54:25.018Z,14.30
2018-12-16T16:57:00.369Z,15.23
2018-12-16T16:59:30.587Z,14.57
2018-12-16T17:02:01.771Z,14.50
2018-12-16T17:04:30.758Z,14.43
2018-12-16T17:07:04.464Z,18.47
2018-12-16T17:09:39.247Z,14.10
2018-12-16T17:12:13.879Z,14.03
2018-12-16T17:14:46.509Z,13.63
2018-12-16T17:17:21.574Z,14.43
2018-12-16T17:19:50.570Z,13.80
2018-12-16T17:22:22.751Z,13.20
2018-12-16T17:24:56.238Z,14.10
2018-12-16T17:27:28.662Z,13.87
2018-12-16T17:29:58.046Z,13.23
2018-12-16T17:32:29.314Z,13.77
2018-12-16T17:35:00.335Z,14.27
2018-12-16T17:37:29.966Z,14.17
2018-12-16T17:40:02.903Z,13.97
2018-12-16T17:42:33.334Z,12.90
2018-12-16T17:45:08.486Z,13.37
2018-12-16T17:47:43.399Z,13.27
2018-12-16T17:50:15.826Z,14.80
2018-12-16T17:52:45.166Z,13.83
2018-12-16T17:55:14.290Z,13.97
2018-12-16T17:57:47.591Z,13.83
2018-12-16T18:00:21.178Z,14.50
2018-12-16T18:02:50.263Z,15.33
2018-12-16T18:05:24.114Z,15.20
2018-12-16T18:07:59.562Z,14.70
2018-12-16T18:10:33.070Z,15.60
2018-12-16T18:13:03.486Z,14.33
2018-12-16T18:15:37.191Z,14.67
2018-12-16T18:18:10.355Z,15.33
2018-12-16T18:20:42.859Z,15.43
2018-12-16T18:23:14.241Z,15.13
2018-12-16T18:25:49.050Z,14.63
2018-12-16T18:28:21.820Z,17.30
2018-12-16T18:30:56.834Z,15.90
2018-12-16T18:33:26.152Z,15.67
2018-12-16T18:35:57.210Z,15.87
2018-12-16T18:38:27.950Z,15.90
2018-12-16T18:40:57.785Z,16.17
2018-12-16T18:43:33.666Z,14.80
2018-12-16T18:46:06.769Z,29.20
2018-12-16T18:48:39.637Z,16.20
2018-12-16T18:51:08.750Z,16.80
2018-12-16T18:53:39.934Z,15.67
2018-12-16T18:56:12.286Z,16.73
2018-12-16T18:58:42.274Z,20.55
2018-12-16T19:01:11.734Z,20.37
2018-12-16T19:03:44.204Z,16.57
2018-12-16T19:06:17.598Z,15.90
2018-12-16T19:08:51.200Z,15.53
2018-12-16T19:11:26.813Z,14.57
2018-12-16T19:13:59.267Z,14.73
2018-12-16T19:16:34.474Z,15.07
2018-12-16T19:19:05.711Z,14.97
2018-12-16T19:21:38.738Z,14.80
2018-12-16T19:24:13.295Z,14.20
2018-12-16T19:26:44.495Z,14.23
2018-12-16T19:29:19.282Z,15.40
2018-12-16T19:31:54.341Z,14.00
2018-12-16T19:34:23.781Z,14.47
2018-12-16T19:36:53.421Z,12.87
2018-12-16T19:39:28.282Z,13.40
2018-12-16T19:42:00.626Z,15.00
2018-12-16T19:44:31.946Z,15.33
2018-12-16T19:47:07.058Z,15.00
2018-12-16T19:49:40.035Z,17.47
2018-12-16T19:52:09.450Z,15.13
2018-12-16T19:54:40.682Z,15.00
2018-12-16T19:57:14.265Z,14.90
2018-12-16T19:59:44.502Z,14.77
2018-12-16T20:02:17.023Z,14.63
2018-12-16T20:04:57.236Z,14.23
2018-12-16T20:07:26.270Z,14.43
2018-12-16T20:12:30.072Z,14.37
2018-12-16T20:15:06.046Z,14.83
2018-12-16T20:17:35.167Z,14.20
2018-12-16T20:20:10.362Z,14.30
2018-12-16T20:22:41.274Z,13.27
2018-12-16T20:25:11.670Z,14.27
2018-12-16T20:27:46.714Z,14.63
2018-12-16T20:30:22.202Z,15.20
2018-12-16T20:32:53.043Z,13.83
2018-12-16T20:35:24.462Z,12.93
2018-12-16T20:37:56.678Z,14.10
2018-12-16T20:40:30.479Z,18.93
2018-12-16T20:43:00.982Z,17.20
2018-12-16T20:45:36.433Z,14.37
2018-12-16T20:48:09.677Z,12.97
2018-12-16T20:50:45.290Z,12.20
2018-12-16T20:53:15.339Z,12.90
2018-12-16T20:55:48.254Z,15.33
2018-12-16T20:58:18.970Z,15.13
2018-12-16T21:00:50.310Z,13.40
2018-12-16T21:03:25.461Z,15.47
2018-12-16T21:05:58.678Z,13.97
2018-12-16T21:08:31.544Z,13.23
2018-12-16T21:13:35.569Z,14.37
2018-12-16T21:16:11.486Z,13.90
2018-12-16T21:18:42.795Z,12.80
2018-12-16T21:21:17.646Z,13.07
2018-12-16T21:23:51.398Z,13.13
2018-12-16T21:26:22.156Z,13.33
2018-12-16T21:28:51.182Z,13.07
2018-12-16T21:31:27.027Z,14.67
2018-12-16T21:33:56.409Z,15.23
2018-12-16T21:36:29.129Z,13.13
2018-12-16T21:38:58.226Z,15.03
2018-12-16T21:41:30.590Z,13.73
2018-12-16T21:44:00.003Z,14.70
2018-12-16T21:46:30.850Z,12.73
2018-12-16T21:49:03.910Z,13.13
2018-12-16T21:51:35.406Z,12.27
2018-12-16T21:54:04.811Z,12.30
2018-12-16T21:56:38.335Z,12.97
2018-12-16T21:59:12.017Z,13.10
2018-12-16T22:01:45.015Z,12.57
2018-12-16T22:04:17.691Z,11.83
2018-12-16T22:06:47.070Z,11.87
2018-12-16T22:09:18.101Z,12.37
2018-12-16T22:11:48.174Z,12.77
2018-12-16T22:14:23.059Z,12.33
2018-12-16T22:16:55.466Z,13.73
2018-12-16T22:19:28.274Z,12.77
2018-12-16T22:21:57.674Z,12.40
2018-12-16T22:24:30.457Z,11.87
2018-12-16T22:27:05.426Z,12.03
2018-12-16T22:29:37.682Z,14.00
2018-12-16T22:32:11.362Z,13.43
2018-12-16T22:34:44.662Z,12.43
2018-12-16T22:37:14.342Z,13.17
2018-12-16T22:39:49.770Z,12.50
2018-12-16T22:42:22.066Z,13.20
2018-12-16T22:44:51.073Z,13.03
2018-12-16T22:47:20.058Z,12.40
2018-12-16T22:49:49.223Z,12.00
2018-12-16T22:52:19.446Z,12.80
2018-12-16T22:54:51.090Z,13.30
2018-12-16T22:57:25.787Z,11.80
2018-12-16T22:59:56.034Z,12.17
2018-12-16T23:02:30.991Z,14.07
2018-12-16T23:05:06.139Z,12.30
2018-12-16T23:07:37.334Z,13.07
2018-12-16T23:10:10.838Z,13.70
2018-12-16T23:12:46.510Z,11.83
2018-12-16T23:15:19.670Z,15.13
2018-12-16T23:17:54.982Z,12.30
2018-12-16T23:20:29.520Z,10.70
2018-12-16T23:23:05.051Z,12.77
2018-12-16T23:25:36.318Z,12.53
2018-12-16T23:28:11.375Z,12.03
2018-12-16T23:30:46.726Z,11.97
2018-12-16T23:33:19.229Z,11.83
2018-12-16T23:35:48.742Z,11.53
2018-12-16T23:38:19.790Z,11.57
2018-12-16T23:40:52.827Z,13.20
2018-12-16T23:43:22.326Z,12.63
2018-12-16T23:45:58.270Z,12.63
2018-12-16T23:48:32.803Z,16.13
2018-12-16T23:51:05.071Z,12.03
2018-12-16T23:53:34.293Z,11.63
2018-12-16T23:56:03.915Z,12.30
2018-12-16T23:58:36.820Z,11.90
